Time;durP1;ratioP1;P1;durP2;ratioP2;P2;SDS_P1;SDS_P2;PMS_P1;PMS_P2;Temp;Humidity;BMP_temperature;BMP_pressure;BME280_temperature;BME280_humidity;BME280_pressure;Samples;Min_cycle;Max_cycle;Signal;HPM_P1;HPM_P2
2023/07/27 00:00:08;;;;;;;4.60;1.50;;;;;;;21.32;49.88;100489.91;5052614;28;20391;-76
2023/07/27 00:02:35;;;;;;;2.70;1.47;;;;;;;21.35;49.68;100496.66;5051278;28;20381;-76
2023/07/27 00:05:01;;;;;;;3.75;1.30;;;;;;;21.32;49.83;100499.84;5052415;28;20416;-76
2023/07/27 00:07:26;;;;;;;3.72;1.73;;;;;;;21.45;49.46;100485.22;5052462;28;20391;-77
2023/07/27 00:09:52;;;;;;;2.67;1.50;;;;;;;21.52;49.45;100488.59;5052478;28;20716;-75
2023/07/27 00:12:17;;;;;;;3.30;1.60;;;;;;;21.47;49.39;100485.81;5052489;28;20381;-75
2023/07/27 00:14:43;;;;;;;3.53;1.63;;;;;;;21.32;49.39;100478.28;5052348;28;20373;-77
2023/07/27 00:17:09;;;;;;;3.65;1.60;;;;;;;21.20;49.57;100483.78;5052452;28;20380;-75
2023/07/27 00:19:34;;;;;;;3.57;1.30;;;;;;;21.11;49.60;100482.56;5053272;28;20392;-75
2023/07/27 00:22:00;;;;;;;4.90;1.50;;;;;;;21.12;49.62;100487.69;5052455;28;20416;-76
2023/07/27 00:24:25;;;;;;;3.60;1.20;;;;;;;21.11;49.60;100475.28;5051008;28;20491;-76
2023/07/27 00:26:51;;;;;;;3.35;1.20;;;;;;;20.95;49.67;100481.50;5052365;28;20385;-76
2023/07/27 00:29:16;;;;;;;3.40;1.07;;;;;;;21.07;49.44;100479.53;5052120;28;20369;-76
2023/07/27 00:31:42;;;;;;;3.30;1.33;;;;;;;20.99;49.60;100488.00;5051673;28;20394;-76
2023/07/27 00:34:07;;;;;;;4.03;1.35;;;;;;;21.15;49.21;100489.06;5052136;28;20389;-76
2023/07/27 00:36:33;;;;;;;2.97;1.20;;;;;;;21.12;49.21;100484.16;5052663;28;20891;-76
2023/07/27 00:38:59;;;;;;;4.63;1.27;;;;;;;21.14;49.04;100488.28;5052033;28;20384;-76
2023/07/27 00:41:24;;;;;;;4.07;1.33;;;;;;;21.13;49.10;100491.22;5051707;28;20373;-76
2023/07/27 00:43:49;;;;;;;3.23;1.13;;;;;;;21.02;49.15;100489.41;5051664;28;20489;-76
2023/07/27 00:46:15;;;;;;;4.15;1.40;;;;;;;21.03;49.26;100494.56;5051306;28;20396;-76
2023/07/27 00:48:41;;;;;;;3.40;1.30;;;;;;;21.02;48.99;100487.53;5051545;28;20376;-75
2023/07/27 00:51:07;;;;;;;4.32;1.33;;;;;;;21.09;48.99;100488.19;5051897;28;20377;-76
2023/07/27 00:53:33;;;;;;;2.78;1.23;;;;;;;21.23;48.77;100498.63;5051557;28;20385;-75
2023/07/27 00:56:00;;;;;;;3.05;1.38;;;;;;;21.38;48.52;100501.56;5051537;28;20368;-75
2023/07/27 00:58:26;;;;;;;4.35;1.30;;;;;;;21.30;48.56;100493.88;5051004;28;20404;-75
2023/07/27 01:00:51;;;;;;;3.43;1.40;;;;;;;21.32;48.30;100489.06;5051476;28;20380;-75
2023/07/27 01:03:18;;;;;;;3.90;1.47;;;;;;;21.23;48.28;100485.16;5056137;28;20729;-75
2023/07/27 01:05:43;;;;;;;2.80;1.10;;;;;;;21.24;48.20;100476.81;5056124;28;20392;-75
2023/07/27 01:08:09;;;;;;;3.13;1.30;;;;;;;21.15;48.01;100475.59;5056570;28;20733;-75
2023/07/27 01:10:47;;;;;;;3.90;1.70;;;;;;;21.08;48.28;100475.75;5054258;28;20928;-76
2023/07/27 01:13:26;;;;;;;4.38;1.40;;;;;;;20.97;48.31;100473.97;5051185;28;20388;-75
2023/07/27 01:16:04;;;;;;;2.50;1.15;;;;;;;20.87;48.52;100471.94;5051105;28;20381;-76
2023/07/27 01:18:40;;;;;;;4.10;1.33;;;;;;;20.77;48.71;100469.06;5051290;28;20376;-76
2023/07/27 01:21:19;;;;;;;4.83;1.30;;;;;;;20.91;48.55;100483.03;5051096;28;20857;-75
2023/07/27 01:23:44;;;;;;;3.25;1.38;;;;;;;20.89;48.32;100475.22;5050979;28;20377;-76
2023/07/27 01:26:30;;;;;;;3.20;1.10;;;;;;;20.61;48.71;100487.66;5050004;28;20385;-76
2023/07/27 01:29:07;;;;;;;4.25;1.30;;;;;;;20.48;48.80;100474.47;5050639;28;20377;-75
2023/07/27 01:31:41;;;;;;;3.33;1.20;;;;;;;20.53;48.61;100474.56;5050885;28;20466;-75
2023/07/27 01:34:37;;;;;;;2.50;1.10;;;;;;;20.42;48.44;100476.25;5050882;28;20487;-75
2023/07/27 01:37:05;;;;;;;6.38;1.40;;;;;;;20.65;48.31;100479.91;5050519;28;20834;-75
2023/07/27 01:39:35;;;;;;;2.58;1.05;;;;;;;20.49;48.30;100480.66;5050798;28;20383;-75
2023/07/27 01:42:02;;;;;;;2.42;1.00;;;;;;;20.53;48.19;100477.25;5049445;28;20380;-76
2023/07/27 01:44:31;;;;;;;5.05;1.20;;;;;;;20.53;48.32;100487.22;5050709;28;20882;-76
2023/07/27 01:46:58;;;;;;;3.95;1.10;;;;;;;20.41;48.32;100471.09;5049613;28;20467;-74
2023/07/27 01:49:24;;;;;;;4.30;1.20;;;;;;;20.45;48.22;100483.00;5050641;28;20376;-76
2023/07/27 01:51:50;;;;;;;4.77;1.20;;;;;;;20.30;48.23;100485.44;5050469;28;20369;-76
2023/07/27 01:54:16;;;;;;;3.15;1.13;;;;;;;20.21;48.41;100498.44;5050501;28;20369;-75
2023/07/27 01:56:44;;;;;;;3.28;1.30;;;;;;;20.38;48.05;100474.25;5049854;28;20438;-75
2023/07/27 01:59:10;;;;;;;3.43;1.10;;;;;;;20.42;48.06;100492.41;5050468;28;20387;-75
2023/07/27 02:01:42;;;;;;;2.60;1.15;;;;;;;20.53;47.79;100488.03;5050450;28;20391;-75
2023/07/27 02:04:09;;;;;;;3.92;1.38;;;;;;;20.56;47.85;100492.09;5049273;28;20404;-75
2023/07/27 02:06:35;;;;;;;4.78;1.40;;;;;;;20.54;47.84;100491.53;5050422;28;20400;-75
2023/07/27 02:09:00;;;;;;;2.80;1.17;;;;;;;20.50;47.95;100498.47;5050384;28;20386;-75
2023/07/27 02:11:27;;;;;;;4.83;1.20;;;;;;;20.35;48.08;100505.19;5050697;28;20391;-76
2023/07/27 02:14:01;;;;;;;3.65;1.33;;;;;;;20.36;48.16;100487.97;5050668;28;20388;-75
2023/07/27 02:16:53;;;;;;;3.53;1.35;;;;;;;20.19;48.48;100495.19;5050268;28;20385;-75
2023/07/27 02:19:26;;;;;;;4.07;1.20;;;;;;;20.17;48.47;100491.91;5050234;28;20365;-75
2023/07/27 02:21:54;;;;;;;5.13;1.45;;;;;;;20.17;48.42;100500.81;5050210;28;20392;-76
2023/07/27 02:24:21;;;;;;;3.83;1.33;;;;;;;20.18;48.33;100499.72;5050145;28;20497;-75
2023/07/27 02:26:47;;;;;;;3.67;1.50;;;;;;;19.96;48.56;100502.25;5049878;28;20453;-75
2023/07/27 02:29:12;;;;;;;4.55;1.23;;;;;;;19.92;48.77;100511.06;5050565;28;20388;-75
2023/07/27 02:31:38;;;;;;;5.33;1.73;;;;;;;19.86;48.57;100505.56;5050808;28;20380;-75
2023/07/27 02:34:04;;;;;;;3.03;1.20;;;;;;;19.85;48.67;100511.97;5049307;28;20856;-75
2023/07/27 02:36:29;;;;;;;3.27;1.20;;;;;;;19.83;48.86;100526.72;5050022;28;20381;-75
2023/07/27 02:38:55;;;;;;;3.13;1.05;;;;;;;19.39;49.44;100528.91;5050079;28;20467;-75
2023/07/27 02:41:21;;;;;;;2.72;1.20;;;;;;;19.53;49.21;100527.66;5049841;28;20377;-75
2023/07/27 02:43:46;;;;;;;2.53;1.00;;;;;;;19.43;49.53;100540.88;5050008;28;20383;-76
2023/07/27 02:46:12;;;;;;;4.07;1.20;;;;;;;19.34;49.53;100548.44;5052212;28;20733;-75
2023/07/27 02:48:37;;;;;;;4.47;1.20;;;;;;;19.17;49.96;100550.16;5051793;28;20729;-75
2023/07/27 02:51:05;;;;;;;3.20;1.37;;;;;;;19.11;50.10;100554.59;5049906;28;20377;-75
2023/07/27 02:53:30;;;;;;;2.83;1.15;;;;;;;19.10;50.17;100559.16;5050210;28;20738;-75
2023/07/27 02:56:01;;;;;;;4.30;1.30;;;;;;;19.11;50.30;100562.66;5049570;28;20952;-75
2023/07/27 02:58:27;;;;;;;3.20;1.20;;;;;;;19.17;50.13;100567.09;5049603;28;20404;-75
2023/07/27 03:00:54;;;;;;;3.13;1.05;;;;;;;19.13;50.40;100568.63;5050260;28;20864;-76
2023/07/27 03:03:20;;;;;;;2.97;1.17;;;;;;;19.26;50.43;100576.47;5049529;28;20385;-76
2023/07/27 03:05:46;;;;;;;4.03;1.30;;;;;;;19.30;50.21;100566.06;5050058;28;20407;-76
2023/07/27 03:08:11;;;;;;;4.97;1.35;;;;;;;19.43;50.01;100571.25;5049981;28;20476;-76
2023/07/27 03:10:38;;;;;;;5.90;1.50;;;;;;;19.46;49.99;100573.47;5052887;28;20394;-75
2023/07/27 03:13:03;;;;;;;3.63;1.30;;;;;;;19.38;50.33;100591.81;5052682;28;20416;-76
2023/07/27 03:15:29;;;;;;;4.30;1.40;;;;;;;19.28;50.73;100598.56;5053963;28;20409;-75
2023/07/27 03:17:54;;;;;;;2.47;1.20;;;;;;;19.18;50.79;100597.50;5053617;28;20749;-76
2023/07/27 03:20:19;;;;;;;4.47;1.47;;;;;;;19.16;50.96;100604.94;5053508;28;20447;-75
2023/07/27 03:22:45;;;;;;;2.83;1.30;;;;;;;19.18;50.71;100619.81;5053512;28;20395;-76
2023/07/27 03:25:11;;;;;;;3.13;1.48;;;;;;;19.13;50.59;100618.88;5053136;28;20404;-76
2023/07/27 03:27:36;;;;;;;2.93;1.37;;;;;;;19.04;50.81;100631.78;5053275;28;20381;-76
2023/07/27 03:30:03;;;;;;;5.33;1.90;;;;;;;18.99;50.87;100637.84;5053364;28;20392;-76
2023/07/27 03:32:28;;;;;;;2.88;1.40;;;;;;;18.86;51.01;100627.28;5053541;28;20379;-76
2023/07/27 03:34:54;;;;;;;4.60;1.50;;;;;;;18.75;51.32;100623.47;5053372;28;20369;-75
2023/07/27 03:37:19;;;;;;;3.03;1.50;;;;;;;18.83;51.34;100628.53;5053518;28;20853;-75
2023/07/27 03:39:45;;;;;;;4.03;1.65;;;;;;;18.83;51.48;100627.72;5053246;28;20373;-76
2023/07/27 03:42:11;;;;;;;5.27;1.57;;;;;;;18.79;51.59;100624.66;5053293;28;20384;-76
2023/07/27 03:44:37;;;;;;;3.60;1.70;;;;;;;18.93;51.18;100621.84;5053103;28;20411;-75
2023/07/27 03:47:02;;;;;;;3.63;1.65;;;;;;;19.05;50.79;100622.66;5053094;28;20373;-75
2023/07/27 03:49:28;;;;;;;4.43;1.60;;;;;;;19.12;50.45;100619.91;5052905;28;20453;-75
2023/07/27 03:51:53;;;;;;;3.07;1.60;;;;;;;19.10;50.45;100622.81;5051952;28;20855;-75
2023/07/27 03:54:19;;;;;;;3.40;1.70;;;;;;;19.14;50.32;100612.41;5052649;28;20376;-75
2023/07/27 03:56:44;;;;;;;4.30;1.63;;;;;;;19.23;50.24;100627.16;5051543;28;20392;-75
2023/07/27 03:59:10;;;;;;;4.73;1.70;;;;;;;19.38;50.02;100632.13;5052847;28;20847;-77
2023/07/27 04:01:35;;;;;;;3.50;1.60;;;;;;;19.63;49.82;100627.38;5050906;28;20397;-75
2023/07/27 04:04:01;;;;;;;4.75;1.70;;;;;;;19.71;49.56;100639.66;5052647;28;20481;-76
2023/07/27 04:06:26;;;;;;;3.50;1.57;;;;;;;19.90;49.38;100640.41;5051651;28;20392;-75
2023/07/27 04:08:52;;;;;;;4.63;1.37;;;;;;;20.03;48.99;100639.34;5052370;28;20372;-75
2023/07/27 04:11:17;;;;;;;3.03;1.30;;;;;;;19.98;48.67;100642.72;5050945;28;20483;-76
2023/07/27 04:13:43;;;;;;;2.97;1.30;;;;;;;20.07;48.52;100645.09;5052335;28;20415;-76
2023/07/27 04:16:10;;;;;;;3.60;1.70;;;;;;;20.10;48.49;100650.81;5052751;28;20376;-77
2023/07/27 04:18:36;;;;;;;5.22;1.63;;;;;;;20.12;48.59;100651.41;5052639;28;20377;-75
2023/07/27 04:21:02;;;;;;;4.53;1.70;;;;;;;20.07;48.49;100642.41;5052083;28;20469;-77
2023/07/27 04:23:27;;;;;;;3.83;1.60;;;;;;;19.89;48.93;100649.53;5052290;28;20471;-76
2023/07/27 04:25:52;;;;;;;6.78;1.95;;;;;;;19.96;48.71;100636.78;5054405;28;20408;-76
2023/07/27 04:28:18;;;;;;;3.60;1.80;;;;;;;19.83;48.77;100640.53;5054766;28;20393;-76
2023/07/27 04:30:44;;;;;;;5.77;2.00;;;;;;;19.84;48.78;100644.03;5052210;28;20873;-76
2023/07/27 04:33:09;;;;;;;3.00;1.60;;;;;;;19.71;48.87;100647.72;5052369;28;20377;-76
2023/07/27 04:35:35;;;;;;;2.75;1.50;;;;;;;19.55;48.90;100657.28;5052120;28;20392;-77
2023/07/27 04:38:00;;;;;;;3.87;1.53;;;;;;;19.40;49.03;100659.59;5051965;28;20391;-74
2023/07/27 04:40:26;;;;;;;2.10;1.40;;;;;;;19.45;48.68;100657.03;5052318;28;20380;-74
2023/07/27 04:42:51;;;;;;;1.70;1.17;;;;;;;19.43;48.44;100673.41;5052472;28;20412;-74
2023/07/27 04:45:17;;;;;;;4.80;1.53;;;;;;;19.51;48.25;100676.81;5052177;28;20423;-74
2023/07/27 04:47:42;;;;;;;2.80;1.48;;;;;;;19.51;48.19;100676.81;5052074;28;20380;-74
2023/07/27 04:50:08;;;;;;;3.37;1.30;;;;;;;19.52;48.08;100678.44;5040237;28;20378;-74
2023/07/27 04:52:34;;;;;;;3.47;1.33;;;;;;;19.71;47.73;100677.31;5021451;28;20390;-74
2023/07/27 04:54:59;;;;;;;2.00;1.20;;;;;;;19.75;47.64;100669.63;5020266;28;20376;-74
2023/07/27 04:57:24;;;;;;;2.07;1.30;;;;;;;19.72;47.75;100662.81;5019576;28;20477;-73
2023/07/27 04:59:50;;;;;;;2.43;1.20;;;;;;;19.61;48.06;100659.06;5011974;28;20476;-75
2023/07/27 05:02:15;;;;;;;2.70;1.43;;;;;;;19.84;47.85;100662.84;5017269;28;20867;-74
2023/07/27 05:04:41;;;;;;;5.10;2.00;;;;;;;19.93;48.28;100658.75;5030776;28;20755;-74
2023/07/27 05:07:06;;;;;;;4.23;1.40;;;;;;;20.25;47.51;100663.78;5019708;28;21118;-75
2023/07/27 05:09:32;;;;;;;2.23;1.43;;;;;;;20.58;47.31;100668.56;5022839;28;20380;-75
2023/07/27 05:11:57;;;;;;;2.30;1.40;;;;;;;20.59;46.36;100680.13;5021819;28;20382;-75
2023/07/27 05:14:23;;;;;;;3.00;1.30;;;;;;;20.54;46.42;100671.94;5021745;28;20376;-74
2023/07/27 05:16:48;;;;;;;3.77;1.90;;;;;;;20.68;46.05;100680.63;5019207;28;20388;-74
2023/07/27 05:19:14;;;;;;;2.47;1.20;;;;;;;20.87;45.82;100671.31;5020140;28;20380;-73
2023/07/27 05:21:39;;;;;;;3.93;1.40;;;;;;;21.07;45.64;100668.19;5020748;28;20398;-74
2023/07/27 05:24:05;;;;;;;4.10;1.30;;;;;;;20.95;45.02;100676.31;5019549;28;20412;-75
2023/07/27 05:26:30;;;;;;;3.30;1.30;;;;;;;20.67;45.65;100662.81;5018067;28;20416;-73
2023/07/27 05:28:56;;;;;;;6.50;1.40;;;;;;;21.02;45.25;100684.25;5026425;28;20378;-75
2023/07/27 05:31:21;;;;;;;2.30;1.10;;;;;;;21.03;44.91;100685.91;5028041;28;20391;-75
2023/07/27 05:33:47;;;;;;;2.43;1.50;;;;;;;20.57;45.48;100695.72;5028769;28;20760;-74
2023/07/27 05:36:12;;;;;;;3.10;1.30;;;;;;;20.68;45.42;100704.88;5022360;28;20410;-75
2023/07/27 05:38:38;;;;;;;2.33;1.10;;;;;;;20.55;45.72;100700.53;5015826;28;20372;-75
2023/07/27 05:41:04;;;;;;;1.60;1.10;;;;;;;20.48;46.33;100700.66;5010960;28;20376;-74
2023/07/27 05:43:29;;;;;;;2.50;1.10;;;;;;;21.02;45.81;100713.91;5011283;28;20426;-75
2023/07/27 05:45:56;;;;;;;3.40;1.60;;;;;;;21.21;45.23;100722.63;5015361;28;20435;-76
2023/07/27 05:48:22;;;;;;;3.60;1.30;;;;;;;21.36;45.08;100725.63;5013229;28;20494;-75
2023/07/27 05:50:47;;;;;;;1.93;1.20;;;;;;;21.28;44.62;100717.91;5019519;28;20815;-76
2023/07/27 05:53:13;;;;;;;2.90;1.20;;;;;;;21.03;44.66;100709.31;5020089;28;20419;-74
2023/07/27 05:55:38;;;;;;;2.63;1.20;;;;;;;20.89;44.55;100708.81;5012664;28;20380;-73
2023/07/27 05:58:03;;;;;;;2.65;1.33;;;;;;;21.13;44.26;100718.44;5020102;28;20513;-75
2023/07/27 06:00:30;;;;;;;4.00;1.53;;;;;;;21.05;44.72;100715.28;5014201;28;20768;-76
2023/07/27 06:02:55;;;;;;;4.40;1.60;;;;;;;21.22;44.34;100715.38;5014771;28;20751;-74
2023/07/27 06:05:21;;;;;;;3.63;1.58;;;;;;;21.21;44.29;100728.00;5016696;28;20949;-74
2023/07/27 06:07:46;;;;;;;2.97;1.30;;;;;;;21.51;44.40;100722.41;5020192;28;20630;-72
2023/07/27 06:10:12;;;;;;;2.70;1.53;;;;;;;21.74;44.23;100713.34;5020315;28;20445;-74
2023/07/27 06:12:38;;;;;;;3.97;1.90;;;;;;;21.87;43.73;100714.09;5016977;28;20388;-75
2023/07/27 06:15:03;;;;;;;2.75;1.80;;;;;;;21.81;43.48;100710.50;5010322;28;20376;-76
2023/07/27 06:17:29;;;;;;;3.27;1.60;;;;;;;21.78;43.76;100716.38;5010625;28;20549;-75
2023/07/27 06:19:54;;;;;;;4.45;1.80;;;;;;;21.82;43.48;100714.00;5012025;28;20375;-76
2023/07/27 06:22:20;;;;;;;3.93;1.73;;;;;;;21.94;43.19;100726.38;5011746;28;20387;-75
2023/07/27 06:24:45;;;;;;;3.50;1.90;;;;;;;22.02;43.17;100719.75;5017714;28;20432;-75
2023/07/27 06:27:11;;;;;;;2.20;1.70;;;;;;;22.20;42.84;100729.47;5027181;28;20386;-75
2023/07/27 06:29:36;;;;;;;3.03;2.10;;;;;;;22.31;42.85;100725.09;5020836;28;20416;-75
2023/07/27 06:32:02;;;;;;;2.40;1.80;;;;;;;22.30;42.76;100735.03;5037348;28;20390;-74
2023/07/27 06:34:28;;;;;;;3.30;2.08;;;;;;;22.13;42.85;100737.75;5015912;28;20479;-75
2023/07/27 06:36:53;;;;;;;2.30;1.80;;;;;;;22.24;42.70;100727.91;5018732;28;20372;-75
2023/07/27 06:39:18;;;;;;;1.83;1.70;;;;;;;22.22;42.43;100738.16;5014131;28;20879;-74
2023/07/27 06:41:44;;;;;;;3.10;1.80;;;;;;;21.77;43.06;100733.66;5013573;28;20380;-75
2023/07/27 06:44:09;;;;;;;3.73;1.90;;;;;;;22.04;43.27;100731.13;5023230;28;20415;-77
2023/07/27 06:46:35;;;;;;;5.55;2.20;;;;;;;22.09;43.36;100733.91;5022774;28;20405;-75
2023/07/27 06:49:00;;;;;;;3.73;2.00;;;;;;;22.51;42.58;100735.34;5023182;28;20380;-75
2023/07/27 06:51:26;;;;;;;3.53;1.93;;;;;;;22.75;42.29;100719.72;5029369;28;20382;-76
2023/07/27 06:53:51;;;;;;;1.80;1.70;;;;;;;22.81;42.12;100737.63;5033499;28;20382;-76
2023/07/27 06:56:17;;;;;;;4.77;2.40;;;;;;;22.73;42.42;100729.16;5023573;28;20388;-75
2023/07/27 06:58:43;;;;;;;2.67;1.60;;;;;;;22.78;41.56;100737.31;5022653;28;20412;-76
2023/07/27 07:01:10;;;;;;;3.20;1.50;;;;;;;22.39;41.50;100740.84;5026075;28;20383;-76
2023/07/27 07:03:36;;;;;;;5.35;2.10;;;;;;;22.56;41.46;100737.28;5024652;28;20396;-77
2023/07/27 07:06:01;;;;;;;4.38;2.13;;;;;;;22.68;40.79;100733.41;5024907;28;20406;-76
2023/07/27 07:08:27;;;;;;;2.77;1.20;;;;;;;22.59;40.20;100734.91;5025057;28;20391;-75
2023/07/27 07:10:52;;;;;;;3.97;1.10;;;;;;;22.26;40.68;100739.31;5032261;28;20394;-75
2023/07/27 07:13:18;;;;;;;5.15;1.25;;;;;;;21.86;41.96;100736.75;5034829;28;20410;-76
2023/07/27 07:15:45;;;;;;;2.50;1.20;;;;;;;21.83;42.01;100734.56;5035367;28;20727;-76
2023/07/27 07:18:10;;;;;;;5.68;1.30;;;;;;;22.35;41.19;100723.50;5035048;28;20851;-75
2023/07/27 07:20:36;;;;;;;4.20;1.20;;;;;;;22.23;40.75;100752.47;5034961;28;20397;-75
2023/07/27 07:23:02;;;;;;;5.53;1.25;;;;;;;21.89;41.69;100753.25;5035040;28;20379;-76
2023/07/27 07:25:27;;;;;;;2.57;0.90;;;;;;;21.71;41.87;100775.88;5035315;28;20402;-76
2023/07/27 07:27:53;;;;;;;5.78;1.30;;;;;;;22.03;41.67;100769.97;5033862;28;20735;-77
2023/07/27 07:30:18;;;;;;;4.97;1.33;;;;;;;22.46;40.46;100771.19;5034367;28;20386;-78
2023/07/27 07:32:44;;;;;;;5.77;1.63;;;;;;;22.47;40.57;100747.69;5033965;28;20727;-74
2023/07/27 07:35:09;;;;;;;3.47;1.50;;;;;;;22.37;40.71;100775.38;5033637;28;20707;-75
2023/07/27 07:37:34;;;;;;;3.63;1.40;;;;;;;22.20;41.01;100751.09;5033810;28;20382;-75
2023/07/27 07:40:00;;;;;;;3.70;1.70;;;;;;;22.28;40.85;100753.38;5033410;28;20382;-75
2023/07/27 07:42:25;;;;;;;2.70;1.60;;;;;;;22.20;40.42;100761.88;5034697;28;20898;-75
2023/07/27 07:44:51;;;;;;;2.70;1.48;;;;;;;22.20;40.80;100761.03;5033881;28;20732;-75
2023/07/27 07:47:16;;;;;;;3.70;1.90;;;;;;;22.53;40.63;100777.25;5033849;28;20396;-75
2023/07/27 07:49:42;;;;;;;3.73;2.10;;;;;;;22.61;40.06;100767.91;5050582;28;20392;-74
2023/07/27 07:52:08;;;;;;;5.70;1.95;;;;;;;23.05;39.38;100786.91;5053314;28;20463;-75
2023/07/27 07:54:33;;;;;;;2.83;1.90;;;;;;;22.40;39.77;100763.25;5052346;28;20365;-77
2023/07/27 07:56:59;;;;;;;3.80;2.40;;;;;;;22.17;40.84;100772.34;5052613;28;20412;-76
2023/07/27 07:59:24;;;;;;;4.50;2.22;;;;;;;22.20;41.12;100785.34;5050332;28;20380;-75
2023/07/27 08:01:51;;;;;;;4.63;2.25;;;;;;;22.43;40.72;100781.69;5053496;28;20375;-74
2023/07/27 08:04:20;;;;;;;4.10;2.63;;;;;;;22.55;40.45;100787.81;5052745;28;20409;-75
2023/07/27 08:06:45;;;;;;;4.50;2.58;;;;;;;22.64;39.80;100789.03;5053049;28;20376;-75
2023/07/27 08:09:11;;;;;;;2.67;1.90;;;;;;;22.26;39.59;100790.63;5053240;28;20392;-75
2023/07/27 08:11:41;;;;;;;6.63;2.67;;;;;;;22.28;40.33;100793.88;5053455;28;20853;-75
2023/07/27 08:14:07;;;;;;;5.30;3.20;;;;;;;22.35;40.32;100787.53;5052890;28;20377;-74
2023/07/27 08:16:33;;;;;;;4.53;2.73;;;;;;;22.49;40.50;100796.88;5052945;28;20442;-74
2023/07/27 08:18:58;;;;;;;4.32;2.38;;;;;;;22.19;40.52;100798.03;5053131;28;20377;-75
2023/07/27 08:21:25;;;;;;;3.77;2.50;;;;;;;22.64;39.89;100799.03;5055242;28;20372;-76
2023/07/27 08:23:52;;;;;;;2.50;2.30;;;;;;;22.38;39.42;100805.91;5055916;28;20373;-75
2023/07/27 08:26:17;;;;;;;3.85;2.47;;;;;;;22.49;39.05;100784.22;5054980;28;20408;-76
2023/07/27 08:28:43;;;;;;;6.03;2.78;;;;;;;22.77;38.38;100798.66;5054724;28;20757;-75
2023/07/27 08:31:08;;;;;;;3.40;2.50;;;;;;;22.44;38.83;100786.84;5055781;28;20384;-74
2023/07/27 08:33:34;;;;;;;3.33;2.23;;;;;;;21.92;39.18;100809.47;5055159;28;20446;-75
2023/07/27 08:36:00;;;;;;;4.20;2.90;;;;;;;22.28;39.51;100804.69;5052707;28;20722;-76
2023/07/27 08:38:26;;;;;;;3.92;2.72;;;;;;;22.82;38.35;100796.03;5054469;28;20364;-75
2023/07/27 08:40:56;;;;;;;2.73;1.90;;;;;;;22.64;35.92;100805.22;5053575;28;20387;-74
2023/07/27 08:43:23;;;;;;;2.72;1.83;;;;;;;22.37;35.39;100783.50;5052298;28;20377;-75
2023/07/27 08:45:49;;;;;;;2.83;1.97;;;;;;;22.16;35.67;100801.22;5051079;28;20396;-74
2023/07/27 08:48:15;;;;;;;5.25;2.25;;;;;;;22.42;34.86;100798.94;5052491;28;20786;-75
2023/07/27 08:50:43;;;;;;;6.03;2.40;;;;;;;22.61;35.25;100769.78;5052308;28;20372;-76
2023/07/27 08:53:09;;;;;;;3.88;2.30;;;;;;;22.84;34.98;100790.38;5053178;28;20722;-73
2023/07/27 08:55:34;;;;;;;3.00;2.00;;;;;;;22.93;34.83;100790.75;5052121;28;20873;-74
2023/07/27 08:57:59;;;;;;;2.73;2.10;;;;;;;22.78;34.90;100802.16;5051815;28;20971;-74
2023/07/27 09:00:25;;;;;;;3.58;2.20;;;;;;;22.83;35.26;100786.88;5052879;28;20450;-74
2023/07/27 09:02:50;;;;;;;7.70;1.60;;;;;;;22.56;35.31;100792.13;5052233;28;20472;-74
2023/07/27 09:05:16;;;;;;;3.73;1.90;;;;;;;22.69;34.96;100802.59;5052160;28;20911;-75
2023/07/27 09:07:41;;;;;;;2.03;1.65;;;;;;;22.77;34.66;100784.34;5052626;28;20450;-75
2023/07/27 09:10:08;;;;;;;4.20;2.17;;;;;;;23.08;35.20;100788.25;5052581;28;20397;-74
2023/07/27 09:12:33;;;;;;;2.85;2.17;;;;;;;23.69;34.56;100798.16;5051305;28;20380;-76
2023/07/27 09:14:59;;;;;;;6.47;1.60;;;;;;;23.29;34.45;100782.03;5051520;28;20379;-75
2023/07/27 09:17:25;;;;;;;3.10;1.30;;;;;;;22.86;34.74;100799.03;5051435;28;20388;-74
2023/07/27 09:19:51;;;;;;;2.42;1.40;;;;;;;22.67;35.50;100795.78;5051250;28;20381;-75
2023/07/27 09:22:18;;;;;;;5.38;1.60;;;;;;;22.88;35.92;100773.38;5050467;28;20377;-75
2023/07/27 09:24:44;;;;;;;2.95;1.65;;;;;;;23.43;35.25;100787.06;5051631;28;20397;-74
2023/07/27 09:27:13;;;;;;;2.50;1.40;;;;;;;23.34;34.18;100770.47;5051514;28;20444;-75
2023/07/27 09:29:40;;;;;;;6.65;1.50;;;;;;;23.43;33.82;100816.81;5051594;28;20368;-73
2023/07/27 09:32:09;;;;;;;3.00;1.23;;;;;;;23.19;33.93;100786.50;5051769;28;20391;-74
2023/07/27 09:34:34;;;;;;;6.13;1.60;;;;;;;23.52;32.91;100799.06;5052201;28;20404;-75
2023/07/27 09:37:04;;;;;;;6.50;1.40;;;;;;;23.29;33.19;100786.63;5052423;28;20471;-75
2023/07/27 09:39:32;;;;;;;5.40;1.80;;;;;;;23.41;32.55;100776.50;5053102;28;20368;-75
2023/07/27 09:41:58;;;;;;;3.00;1.40;;;;;;;23.36;32.61;100805.38;5051821;28;21063;-75
2023/07/27 09:44:24;;;;;;;4.20;1.33;;;;;;;23.60;32.69;100803.19;5051324;28;20488;-74
2023/07/27 09:46:49;;;;;;;4.47;1.40;;;;;;;23.72;31.87;100805.75;5052042;28;20391;-75
2023/07/27 09:49:16;;;;;;;2.67;1.37;;;;;;;23.83;32.21;100807.53;5050792;28;20385;-75
2023/07/27 09:51:43;;;;;;;6.57;1.40;;;;;;;23.87;32.01;100808.63;5051913;28;20695;-76
2023/07/27 09:54:11;;;;;;;2.22;1.20;;;;;;;23.32;32.09;100829.41;5052106;28;20518;-76
2023/07/27 09:56:37;;;;;;;2.65;1.25;;;;;;;23.23;33.38;100803.88;5051097;28;20383;-75
2023/07/27 09:59:03;;;;;;;2.22;1.20;;;;;;;23.58;31.80;100783.69;5051035;28;20424;-75
2023/07/27 10:01:28;;;;;;;4.17;1.57;;;;;;;23.72;32.32;100781.41;5051544;28;20497;-74
2023/07/27 10:04:00;;;;;;;4.15;1.50;;;;;;;23.86;31.88;100761.00;5051499;28;20392;-76
2023/07/27 10:06:27;;;;;;;3.15;1.65;;;;;;;23.83;32.60;100762.31;5051871;28;20385;-76
2023/07/27 10:08:54;;;;;;;3.58;1.52;;;;;;;24.05;32.19;100778.47;5051320;28;20381;-75
2023/07/27 10:11:52;;;;;;;2.10;1.52;;;;;;;23.97;32.62;100768.13;5050578;28;20454;-75
2023/07/27 10:14:19;;;;;;;3.40;1.30;;;;;;;23.95;32.11;100761.31;5051578;28;20376;-75
2023/07/27 10:17:02;;;;;;;3.13;1.27;;;;;;;23.77;32.45;100776.00;5051443;28;20397;-75
2023/07/27 10:19:52;;;;;;;5.60;1.30;;;;;;;23.77;32.18;100743.53;5051217;28;20380;-75
2023/07/27 10:22:19;;;;;;;2.10;1.08;;;;;;;23.87;32.02;100772.63;5052491;28;20387;-76
2023/07/27 10:24:59;;;;;;;1.60;1.10;;;;;;;23.59;31.65;100761.78;5051502;28;20404;-75
2023/07/27 10:27:24;;;;;;;2.97;1.40;;;;;;;23.53;32.62;100754.69;5051271;28;20880;-76
2023/07/27 10:30:08;;;;;;;3.20;1.45;;;;;;;24.11;32.49;100778.50;5051200;28;20389;-75
2023/07/27 10:32:36;;;;;;;6.72;1.40;;;;;;;24.00;32.55;100747.81;5051671;28;20399;-74
2023/07/27 10:35:06;;;;;;;2.50;1.20;;;;;;;23.87;32.75;100748.28;5052038;28;20373;-76
2023/07/27 10:37:53;;;;;;;3.63;1.20;;;;;;;23.79;32.57;100766.59;5052669;28;20707;-75
2023/07/27 10:40:26;;;;;;;7.53;1.30;;;;;;;23.77;32.41;100747.09;5051418;28;20472;-74
2023/07/27 10:43:10;;;;;;;3.17;1.10;;;;;;;23.88;32.18;100760.72;5051129;28;20392;-74
2023/07/27 10:45:35;;;;;;;4.30;1.15;;;;;;;24.19;32.04;100748.25;5049719;28;20990;-75
2023/07/27 10:48:01;;;;;;;1.83;1.10;;;;;;;23.87;32.37;100765.31;5051164;28;20381;-74
2023/07/27 10:50:27;;;;;;;2.58;1.30;;;;;;;24.00;32.36;100754.06;5052384;28;20756;-74
2023/07/27 10:52:53;;;;;;;3.73;1.40;;;;;;;23.98;32.83;100761.63;5051974;28;20387;-76
2023/07/27 10:55:22;;;;;;;5.20;1.60;;;;;;;24.23;31.87;100779.16;5050860;28;20372;-74
2023/07/27 10:57:48;;;;;;;4.15;1.15;;;;;;;23.89;32.21;100795.66;5050928;28;20782;-74
2023/07/27 11:00:14;;;;;;;1.98;1.10;;;;;;;24.25;32.39;100763.44;5044968;28;20436;-75
2023/07/27 11:02:42;;;;;;;3.75;1.27;;;;;;;24.42;31.87;100760.59;5032349;28;20524;-75
2023/07/27 11:05:09;;;;;;;3.90;1.40;;;;;;;24.64;31.91;100770.50;5046812;28;20725;-76
2023/07/27 11:07:37;;;;;;;1.98;1.10;;;;;;;24.60;31.24;100776.44;5049307;28;20388;-74
2023/07/27 11:10:12;;;;;;;2.60;1.40;;;;;;;24.19;31.84;100786.97;5046973;28;20393;-74
2023/07/27 11:12:53;;;;;;;2.90;1.20;;;;;;;24.09;31.95;100764.41;5039053;28;20377;-76
2023/07/27 11:15:21;;;;;;;3.67;1.40;;;;;;;24.38;32.00;100770.31;5048365;28;20373;-74
2023/07/27 11:17:53;;;;;;;2.67;1.30;;;;;;;24.58;31.74;100775.09;5048336;28;20389;-76
2023/07/27 11:20:20;;;;;;;1.98;1.52;;;;;;;24.63;31.98;100768.88;5048429;28;20507;-74
2023/07/27 11:22:47;;;;;;;2.47;1.23;;;;;;;24.54;32.17;100779.38;5048968;28;20479;-75